createdAt,value
2019-01-02T00:04:58.767Z,6.03
2019-01-02T00:10:10.652Z,7.50
2019-01-02T00:15:22.576Z,4.90
2019-01-02T00:20:33.870Z,5.90
2019-01-02T00:25:45.075Z,6.30
2019-01-02T00:30:57.560Z,5.47
2019-01-02T00:36:09.635Z,3.90
2019-01-02T00:41:21.743Z,6.33
2019-01-02T00:46:33.827Z,5.20
2019-01-02T00:51:45.683Z,3.70
2019-01-02T00:56:57.992Z,5.80
2019-01-02T01:02:09.864Z,5.03
2019-01-02T01:07:21.714Z,3.63
2019-01-02T01:12:31.739Z,4.20
2019-01-02T01:17:50.918Z,7.03
2019-01-02T01:23:02.703Z,5.83
2019-01-02T01:28:15.123Z,3.97
2019-01-02T01:33:27.124Z,6.30
2019-01-02T01:38:39.460Z,5.80
2019-01-02T01:43:50.838Z,2.90
2019-01-02T01:49:02.505Z,4.50
2019-01-02T01:54:14.792Z,3.37
2019-01-02T01:59:26.132Z,2.20
2019-01-02T02:04:37.983Z,4.43
2019-01-02T02:09:50.209Z,4.10
2019-01-02T02:15:01.958Z,3.30
2019-01-02T02:20:14.075Z,2.37
2019-01-02T02:25:25.884Z,3.97
2019-01-02T02:30:37.466Z,3.60
2019-01-02T02:35:49.538Z,4.07
2019-01-02T02:40:59.994Z,2.37
2019-01-02T02:46:18.894Z,3.20
2019-01-02T02:51:30.162Z,3.03
2019-01-02T02:56:42.435Z,3.07
2019-01-02T03:01:53.051Z,3.20
2019-01-02T03:07:12.319Z,2.30
2019-01-02T03:12:45.068Z,2.50
2019-01-02T03:17:57.416Z,3.53
2019-01-02T03:23:09.111Z,1.90
2019-01-02T03:28:20.995Z,2.67
2019-01-02T03:33:32.702Z,2.50
2019-01-02T03:38:45.256Z,2.40
2019-01-02T03:43:57.219Z,1.77
2019-01-02T03:49:08.999Z,3.00
2019-01-02T03:54:20.435Z,2.20
2019-01-02T03:59:32.604Z,1.70
2019-01-02T04:04:44.485Z,2.50
2019-01-02T04:09:56.476Z,1.90
2019-01-02T04:15:08.760Z,2.60
2019-01-02T04:20:20.032Z,2.40
2019-01-02T04:25:32.168Z,3.10
2019-01-02T04:30:43.612Z,3.03
2019-01-02T04:35:55.344Z,2.40
2019-01-02T04:41:06.575Z,2.80
2019-01-02T04:46:18.641Z,2.80
2019-01-02T04:51:30.346Z,2.87
2019-01-02T04:56:41.629Z,4.30
2019-01-02T05:01:53.578Z,3.53
2019-01-02T05:07:05.166Z,2.73
2019-01-02T05:12:17.152Z,4.03
2019-01-02T05:17:29.155Z,3.57
2019-01-02T05:22:40.860Z,4.67
2019-01-02T05:27:52.834Z,3.13
2019-01-02T05:33:04.556Z,3.23
2019-01-02T05:38:16.248Z,2.77
2019-01-02T05:43:28.095Z,3.60
2019-01-02T05:48:39.351Z,2.77
2019-01-02T05:53:51.209Z,2.70
2019-01-02T05:59:02.923Z,2.23
2019-01-02T06:04:21.726Z,3.23
2019-01-02T06:09:40.893Z,2.73
2019-01-02T06:14:52.223Z,3.37
2019-01-02T06:20:04.323Z,3.07
2019-01-02T06:25:15.947Z,2.97
2019-01-02T06:30:27.895Z,2.33
2019-01-02T06:35:39.152Z,3.60
2019-01-02T06:40:50.429Z,2.43
2019-01-02T06:46:02.398Z,2.10
2019-01-02T06:51:13.987Z,1.77
2019-01-02T06:56:25.620Z,2.33
2019-01-02T07:01:37.647Z,3.23
2019-01-02T07:06:48.915Z,3.10
2019-01-02T07:12:00.763Z,2.17
2019-01-02T07:17:12.439Z,1.27
2019-01-02T07:22:24.500Z,1.27
2019-01-02T07:27:36.974Z,2.47
2019-01-02T07:32:48.707Z,1.33
2019-01-02T07:38:00.335Z,1.60
2019-01-02T07:43:11.939Z,1.53
2019-01-02T07:48:23.216Z,1.47
2019-01-02T07:53:35.140Z,1.60
2019-01-02T07:58:46.584Z,1.67
2019-01-02T08:03:58.651Z,1.30
2019-01-02T08:15:03.259Z,1.57
2019-01-02T08:20:15.764Z,1.57
2019-01-02T08:25:27.398Z,1.10
2019-01-02T08:30:39.395Z,1.37
2019-01-02T08:35:54.411Z,1.30
2019-01-02T08:41:32.540Z,1.10
2019-01-02T08:46:44.487Z,1.10
2019-01-02T08:51:56.637Z,1.20
2019-01-02T08:57:08.231Z,1.33
2019-01-02T09:02:20.092Z,1.40
2019-01-02T09:07:32.200Z,1.67
2019-01-02T09:12:43.485Z,1.70
2019-01-02T09:17:55.451Z,1.13
2019-01-02T09:23:07.344Z,1.20
2019-01-02T09:28:19.495Z,1.43
2019-01-02T09:33:31.258Z,1.80
2019-01-02T09:38:43.081Z,1.80
2019-01-02T09:43:55.227Z,1.33
2019-01-02T09:49:06.540Z,2.13
2019-01-02T09:54:18.352Z,2.70
2019-01-02T09:59:30.316Z,1.40
2019-01-02T10:04:42.302Z,1.10
2019-01-02T10:09:54.129Z,2.00
2019-01-02T10:15:06.142Z,1.90
2019-01-02T10:20:18.091Z,0.80
2019-01-02T10:25:29.603Z,1.80
2019-01-02T10:30:41.303Z,1.30
2019-01-02T10:35:53.351Z,1.63
2019-01-02T10:41:05.153Z,1.93
2019-01-02T10:46:16.750Z,1.70
2019-01-02T10:51:28.662Z,1.97
2019-01-02T10:56:40.856Z,1.60
2019-01-02T11:01:52.601Z,1.60
2019-01-02T11:12:56.360Z,1.80
2019-01-02T11:18:08.523Z,2.40
2019-01-02T11:23:20.663Z,1.57
2019-01-02T11:28:32.835Z,2.20
2019-01-02T11:33:44.808Z,1.83
2019-01-02T11:38:56.016Z,1.90
2019-01-02T11:44:07.843Z,1.90
2019-01-02T11:49:19.110Z,2.03
2019-01-02T11:54:30.306Z,2.00
2019-01-02T11:59:42.274Z,2.50
2019-01-02T12:04:53.847Z,1.40
2019-01-02T12:10:05.061Z,2.30
2019-01-02T12:15:17.063Z,1.30
2019-01-02T12:20:28.680Z,1.67
2019-01-02T12:25:40.395Z,1.13
2019-01-02T12:30:52.228Z,1.80
2019-01-02T12:36:03.879Z,1.60
2019-01-02T12:41:15.855Z,1.20
2019-01-02T12:46:27.056Z,1.60
2019-01-02T12:51:38.654Z,1.80
2019-01-02T12:56:50.648Z,1.93
2019-01-02T13:02:02.552Z,1.77
2019-01-02T13:07:14.348Z,1.57
2019-01-02T13:12:25.616Z,1.13
2019-01-02T13:17:36.950Z,1.83
2019-01-02T13:22:48.703Z,1.50
2019-01-02T13:28:00.701Z,2.70
2019-01-02T13:33:12.636Z,1.47
2019-01-02T13:38:24.526Z,1.73
2019-01-02T13:43:36.417Z,1.53
2019-01-02T13:48:48.175Z,1.50
2019-01-02T13:53:59.924Z,1.73
2019-01-02T13:59:11.898Z,1.50
2019-01-02T14:04:23.815Z,1.70
2019-01-02T14:09:36.085Z,1.30
2019-01-02T14:14:50.868Z,1.50
2019-01-02T14:20:02.109Z,1.93
2019-01-02T14:25:14.087Z,2.10
2019-01-02T14:30:25.801Z,1.67
2019-01-02T14:35:37.870Z,2.20
2019-01-02T14:40:49.923Z,2.03
2019-01-02T14:46:01.452Z,2.00
2019-01-02T14:51:13.276Z,1.33
2019-01-02T14:56:24.953Z,1.77
2019-01-02T15:01:36.387Z,1.40
2019-01-02T15:06:48.560Z,1.83
2019-01-02T15:11:59.959Z,1.67
2019-01-02T15:17:11.903Z,1.07
2019-01-02T15:22:23.831Z,1.97
2019-01-02T15:27:35.081Z,1.90
2019-01-02T15:32:34.799Z,1.90
2019-01-02T15:37:53.674Z,2.00
2019-01-02T15:42:53.611Z,1.57
2019-01-02T15:48:12.958Z,2.17
2019-01-02T15:53:12.690Z,1.47
2019-01-02T15:58:31.871Z,1.17
2019-01-02T16:03:43.307Z,1.80
2019-01-02T16:08:54.935Z,1.57
2019-01-02T16:13:55.691Z,1.40
2019-01-02T16:19:07.428Z,1.57
2019-01-02T16:24:19.137Z,1.20
2019-01-02T16:29:31.198Z,1.70
2019-01-02T16:34:43.169Z,1.60
2019-01-02T16:39:55.016Z,1.57
2019-01-02T16:45:07.192Z,1.20
2019-01-02T16:50:18.588Z,1.43
2019-01-02T16:55:30.202Z,1.33
2019-01-02T17:00:41.452Z,1.23
2019-01-02T17:05:53.023Z,1.40
2019-01-02T17:11:04.750Z,1.40
2019-01-02T17:16:17.784Z,1.23
2019-01-02T17:21:29.071Z,2.07
2019-01-02T17:26:41.004Z,1.70
2019-01-02T17:31:53.071Z,1.70
2019-01-02T17:37:05.132Z,3.63
2019-01-02T17:42:17.312Z,2.77
2019-01-02T17:47:29.428Z,2.60
2019-01-02T17:52:42.172Z,1.80
2019-01-02T17:57:54.124Z,2.80
2019-01-02T18:03:05.420Z,2.70
2019-01-02T18:53:11.320Z,1.87
2019-01-02T18:58:23.370Z,2.10
2019-01-02T19:03:34.583Z,2.00
2019-01-02T19:08:45.987Z,2.17
2019-01-02T19:13:58.100Z,1.87
2019-01-02T19:19:09.650Z,1.80
2019-01-02T19:24:21.331Z,1.60
2019-01-02T20:03:03.551Z,1.97
2019-01-02T20:08:15.470Z,2.00
2019-01-02T20:13:27.219Z,1.70
2019-01-02T20:18:38.885Z,1.60
2019-01-02T20:23:50.713Z,1.60
2019-01-02T20:29:02.239Z,2.27
2019-01-02T20:34:14.276Z,1.87
2019-01-02T20:39:26.351Z,2.03
2019-01-02T20:44:38.144Z,1.90
2019-01-02T20:49:49.403Z,2.37
2019-01-02T20:55:00.628Z,2.93
2019-01-02T22:47:26.580Z,1.67
2019-01-02T22:58:29.202Z,1.60
2019-01-02T23:09:29.752Z,1.83
2019-01-02T23:15:00.457Z,1.77
2019-01-02T23:20:30.864Z,1.63
2019-01-02T23:26:01.747Z,1.70
2019-01-02T23:31:35.455Z,1.87
2019-01-02T23:37:06.003Z,1.67
2019-01-02T23:42:37.473Z,1.63
2019-01-02T23:48:02.176Z,1.80
2019-01-02T23:53:32.819Z,1.70
2019-01-02T23:59:03.540Z,1.47
